Latest Weather Observations for Swanbourne

IDW60901

Issued at 6:41 am WST Friday 21 July 2017 (issued every 10 minutes, with the page automatically refreshed every 10 minutes)

About weather observations | Map of Perth area stations | Latest observations for Perth area | Other Formats
Station Details ID: 009215 Name: SWANBOURNE Lat: -31.96 Lon: 115.76 Height: 40.96 m
Data from the previous 72 hours. | See also: Recent months at Swanbourne
Date/Time
WST
Temp
°C
App
Temp
°C
Dew
Point
°C
Rel
Hum
%
Delta-T
°C
Wind Press
QNH
hPa
Press
MSL
hPa
Rain since
9am
mm
Dir  Spd
km/h
Gust
km/h
Spd
kts
Gust
kts
21/06:30am 16.3 11.6 9.3 63 3.6 W 24 35 13 19 - - 3.6
21/06:00am 16.4 11.6 10.3 67 3.2 W 26 37 14 20 - - 3.6
21/05:30am 16.5 11.5 9.7 64 3.6 WNW 26 37 14 20 - - 3.6
21/05:00am 16.2 11.8 11.8 75 2.4 W 26 35 14 19 - - 3.6
21/04:30am 15.7 11.9 11.1 74 2.5 WNW 22 33 12 18 - - 3.6
21/04:00am 15.4 12.4 11.8 79 2.0 WNW 19 30 10 16 - - 3.6
21/03:30am 16.4 12.9 10.3 67 3.2 WNW 19 32 10 17 - - 3.4
21/03:00am 16.3 12.7 9.7 65 3.5 W 19 28 10 15 - - 3.4
21/02:30am 16.3 11.5 8.8 61 3.9 W 24 33 13 18 - - 3.4
21/02:00am 16.2 10.3 9.2 63 3.6 W 30 41 16 22 - - 3.4
21/01:30am 15.9 12.6 10.9 72 2.7 WNW 19 26 10 14 - - 3.4
21/01:00am 15.8 10.6 10.3 70 2.9 W 28 41 15 22 - - 3.4
21/12:30am 16.3 11.5 9.0 62 3.8 W 24 32 13 17 - - 3.4
21/12:00am 16.0 11.9 8.7 62 3.7 W 20 28 11 15 - - 3.4
 
Date/Time
WST
Temp
°C
App
Temp
°C
Dew
Point
°C
Rel
Hum
%
Delta-T
°C
Wind Press
QNH
hPa
Press
MSL
hPa
Rain since
9am
mm
Dir  Spd
km/h
Gust
km/h
Spd
kts
Gust
kts
20/11:30pm 16.1 11.4 9.3 64 3.5 W 24 33 13 18 - - 3.4
20/11:00pm 16.2 11.0 10.1 67 3.2 W 28 39 15 21 - - 3.4
20/10:30pm 16.2 11.6 10.9 71 2.8 W 26 37 14 20 - - 3.4
20/10:00pm 16.2 11.8 10.5 69 3.0 WSW 24 35 13 19 - - 3.4
20/09:30pm 16.2 11.5 10.7 70 2.9 W 26 35 14 19 - - 3.4
20/09:00pm 15.8 12.1 11.6 76 2.3 W 22 33 12 18 - - 3.4
20/08:30pm 15.6 12.3 12.7 83 1.6 W 22 35 12 19 - - 3.4
20/08:00pm 15.2 12.3 12.3 83 1.6 WSW 19 26 10 14 - - 3.4
20/07:30pm 15.0 11.9 12.1 83 1.6 W 20 28 11 15 - - 3.4
20/07:00pm 14.9 10.9 13.1 89 1.0 W 26 35 14 19 - - 3.4
20/06:30pm 14.7 10.5 13.6 93 0.6 W 28 41 15 22 - - 3.4
20/06:00pm 14.4 10.1 13.1 92 0.7 WNW 28 43 15 23 - - 3.2
20/05:50pm 14.6 10.1 12.6 88 1.1 W 28 50 15 27 - - 2.8
20/05:30pm 14.9 10.5 12.9 88 1.1 W 28 39 15 21 - - 2.4
20/05:00pm 14.2 10.6 12.9 92 0.7 W 24 44 13 24 - - 2.4
20/04:30pm 15.1 9.8 12.6 85 1.4 W 32 54 17 29 - - 2.0
20/04:00pm 14.7 9.1 12.0 84 1.5 W 33 54 18 29 - - 1.6
20/03:52pm 16.4 11.4 12.2 76 2.3 W 30 54 16 29 - - 1.4
20/03:30pm 16.5 12.8 13.8 84 1.5 W 26 37 14 20 - - 1.4
20/03:00pm 17.6 12.0 11.4 67 3.4 W 32 46 17 25 - - 1.0
20/02:30pm 16.9 11.2 11.8 72 2.8 W 33 54 18 29 - - 1.0
20/02:07pm 15.7 11.3 13.0 84 1.5 W 28 46 15 25 - - 1.0
20/02:00pm 15.6 10.6 12.2 80 1.9 W 30 46 16 25 - - 1.0
20/01:58pm 16.2 11.5 12.0 76 2.3 W 28 46 15 25 - - 1.0
20/01:30pm 17.5 12.9 12.2 71 2.9 W 28 41 15 22 - - 0.8
20/01:00pm 17.3 11.7 12.2 72 2.8 W 33 48 18 26 - - 0.8
20/12:45pm 17.1 12.1 12.2 73 2.7 W 30 50 16 27 - - 0.8
20/12:30pm 16.4 13.4 13.7 84 1.5 W 22 32 12 17 - - 0.8
20/12:06pm 16.8 11.2 12.1 74 2.6 WNW 33 52 18 28 - - 0.8
20/12:00pm 17.0 12.6 12.9 77 2.3 WNW 28 43 15 23 - - 0.8
20/11:30am 14.5 10.0 12.7 89 1.0 W 28 43 15 23 - - 0.8
20/11:15am 16.0 10.7 12.4 79 2.0 W 32 61 17 33 - - 0.4
20/11:00am 14.8 9.8 12.1 84 1.5 W 30 41 16 22 - - 0.4
20/10:48am 15.9 11.2 11.9 77 2.2 W 28 48 15 26 - - 0.4
20/10:30am 16.0 12.0 13.1 83 1.6 W 26 44 14 24 - - 0.4
20/10:00am 14.1 9.9 12.3 89 1.0 WNW 26 39 14 21 - - 0.4
20/09:52am 14.3 8.9 12.3 88 1.1 W 32 50 17 27 - - 0.4
20/09:30am 15.6 10.0 11.4 76 2.3 WNW 32 41 17 22 - - 0.0
20/09:00am 14.8 9.7 11.9 83 1.6 W 30 43 16 23 - - 16.8
20/08:48am 14.2 9.4 11.7 85 1.3 W 28 46 15 25 - - 16.8
20/08:30am 15.0 8.8 10.0 72 2.6 W 33 46 18 25 - - 16.4
20/08:00am 15.8 9.7 10.3 70 2.9 W 33 44 18 24 - - 16.4
20/07:30am 14.6 8.9 9.8 73 2.5 WNW 30 54 16 29 - - 16.4
20/07:19am 15.7 9.7 10.7 72 2.7 W 33 52 18 28 - - 16.4
20/07:00am 15.5 9.4 10.3 71 2.7 W 33 48 18 26 - - 16.4
20/06:30am 15.5 8.6 10.3 71 2.7 W 37 54 20 29 - - 16.4
20/06:00am 15.6 8.2 9.7 68 3.1 W 39 54 21 29 - - 16.4
20/05:45am 15.9 9.5 10.7 71 2.8 W 35 56 19 30 - - 16.4
20/05:30am 15.7 8.2 9.6 67 3.2 W 39 52 21 28 - - 16.4
20/05:00am 15.4 9.6 11.6 78 2.1 W 33 52 18 28 - - 16.4
20/04:30am 14.6 7.7 11.7 83 1.6 W 39 57 21 31 - - 16.4
20/04:00am 15.1 9.0 11.9 81 1.7 W 35 54 19 29 - - 16.4
20/03:30am 15.1 7.2 11.5 79 1.9 W 44 63 24 34 - - 16.4
20/03:00am 14.1 6.4 12.0 87 1.1 WNW 44 67 24 36 - - 16.2
20/02:50am 14.8 8.3 13.0 89 1.0 WNW 39 57 21 31 - - 16.0
20/02:30am 15.4 7.8 12.3 82 1.7 WNW 44 61 24 33 - - 16.0
20/02:00am 15.1 7.8 13.3 89 1.0 WNW 44 69 24 37 - - 15.8
20/01:30am 14.5 7.3 13.2 92 0.7 WNW 43 63 23 34 - - 15.4
20/01:02am 14.0 7.0 13.7 98 0.2 WNW 43 63 23 34 - - 13.8
20/01:00am 13.6 6.9 13.3 98 0.2 WNW 41 57 22 31 - - 13.8
20/12:30am 13.9 8.1 12.6 92 0.7 WNW 35 56 19 30 - - 8.6
20/12:03am 14.5 8.2 12.4 87 1.1 WNW 37 57 20 31 - - 5.2
20/12:00am 14.9 8.3 12.6 86 1.3 W 39 57 21 31 - - 4.8
 
Date/Time
WST
Temp
°C
App
Temp
°C
Dew
Point
°C
Rel
Hum
%
Delta-T
°C
Wind Press
QNH
hPa
Press
MSL
hPa
Rain since
9am
mm
Dir  Spd
km/h
Gust
km/h
Spd
kts
Gust
kts
19/11:52pm 15.4 9.9 12.5 83 1.6 WNW 33 57 18 31 - - 4.8
19/11:30pm 15.5 10.7 13.0 85 1.4 WNW 30 44 16 24 - - 4.6
19/11:00pm 15.0 9.4 11.4 79 1.9 WNW 32 50 17 27 - - 4.4
19/10:30pm 15.4 9.3 10.4 72 2.6 W 33 56 18 30 - - 4.0
19/10:03pm 16.6 10.8 10.7 68 3.2 NW 32 52 17 28 - - 4.0
19/10:00pm 16.4 10.6 10.7 69 3.0 NW 32 50 17 27 - - 4.0
19/09:32pm 16.9 10.4 10.5 66 3.4 NW 35 63 19 34 - - 4.0
19/09:30pm 16.8 10.7 10.4 66 3.4 NW 33 50 18 27 - - 4.0
19/09:00pm 16.6 9.3 10.2 66 3.4 NW 39 50 21 27 - - 4.0
19/08:30pm 16.4 8.4 10.5 68 3.1 NW 43 61 23 33 - - 4.0
19/08:00pm 17.0 10.9 10.4 65 3.5 WNW 33 54 18 29 - - 3.6
19/07:30pm 17.1 9.4 8.8 58 4.3 WNW 39 57 21 31 - - 3.6
19/07:02pm 17.0 9.0 7.4 53 4.8 WNW 39 57 21 31 - - 3.6
19/07:00pm 16.9 9.3 7.5 54 4.7 WNW 37 52 20 28 - - 3.6
19/06:30pm 16.8 10.0 9.2 61 3.9 NW 35 46 19 25 - - 3.6
19/06:14pm 16.6 10.4 10.0 65 3.5 WNW 33 52 18 28 - - 3.6
19/06:00pm 16.8 10.3 10.2 65 3.5 WNW 35 50 19 27 - - 3.6
19/05:30pm 16.2 8.7 9.4 64 3.5 NW 39 52 21 28 - - 3.6
19/05:14pm 16.2 9.4 10.7 70 2.9 NW 37 56 20 30 - - 3.6
19/05:00pm 15.7 10.5 12.8 83 1.6 WNW 32 43 17 23 - - 3.6
19/04:30pm 14.4 9.2 13.3 93 0.6 NW 33 56 18 30 - - 3.4
19/04:00pm 15.3 9.8 12.4 83 1.6 WNW 33 56 18 30 - - 0.8
19/03:41pm 16.6 10.8 11.5 72 2.8 NW 33 52 18 28 - - 0.2
19/03:30pm 16.3 10.2 11.7 74 2.5 WNW 35 48 19 26 - - 0.2
19/03:08pm 16.9 9.9 11.2 69 3.1 NW 39 59 21 32 - - 0.2
19/03:00pm 18.0 10.7 10.1 60 4.2 NW 39 54 21 29 - - 0.2
19/02:30pm 18.2 12.0 11.3 64 3.8 NW 35 46 19 25 - - 0.2
19/02:00pm 17.9 13.3 12.4 70 3.1 WNW 28 43 15 23 - - 0.2
19/01:33pm 16.1 10.1 10.8 71 2.8 NW 33 52 18 28 - - 0.0
19/01:30pm 17.1 11.3 10.7 66 3.4 NW 32 44 17 24 - - 0.0
19/01:00pm 17.5 12.1 10.9 65 3.6 NW 30 46 16 25 - - 0.0
19/12:30pm 18.0 11.5 8.8 55 4.8 NW 33 44 18 24 - - 0.0
19/12:00pm 17.7 10.8 7.2 50 5.3 NW 33 52 18 28 - - 0.0
19/11:55am 17.8 11.1 8.1 53 5.0 NW 33 52 18 28 - - 0.0
19/11:30am 18.1 12.1 10.0 59 4.3 NW 32 46 17 25 - - 0.0
19/11:00am 17.2 11.4 9.4 60 4.1 WNW 30 46 16 25 - - 0.0
19/10:30am 16.9 11.6 9.8 63 3.7 WNW 28 43 15 23 - - 0.0
19/10:00am 16.5 10.8 11.0 70 3.0 WNW 32 43 17 23 - - 0.0
19/09:30am 17.0 12.2 10.4 65 3.5 WNW 26 39 14 21 - - 0.0
19/09:00am 16.8 10.2 8.5 58 4.3 NW 33 50 18 27 - - 4.2
19/08:30am 16.4 11.3 9.3 63 3.7 NW 26 41 14 22 - - 4.2
19/08:00am 16.3 10.9 9.5 64 3.5 NW 28 50 15 27 - - 4.2
19/07:55am 16.4 11.2 10.3 67 3.2 NW 28 46 15 25 - - 4.2
19/07:30am 16.4 10.9 9.3 63 3.7 NW 28 39 15 21 - - 4.2
19/07:00am 16.1 11.5 9.8 66 3.3 NW 24 39 13 21 - - 4.2
19/06:30am 15.9 10.7 10.2 69 3.0 NW 28 41 15 22 - - 4.2
19/06:00am 14.9 9.9 12.2 84 1.5 WNW 30 41 16 22 - - 4.2
19/05:30am 13.8 10.3 13.5 98 0.2 WNW 24 39 13 21 - - 4.2
19/05:00am 14.2 10.5 13.9 98 0.2 WNW 26 35 14 19 - - 3.6
19/04:30am 14.4 10.4 14.1 98 0.2 WNW 28 37 15 20 - - 3.6
19/04:00am 14.4 10.4 14.1 98 0.2 W 28 39 15 21 - - 3.0
19/03:30am 14.8 10.5 14.5 98 0.2 WNW 30 44 16 24 - - 2.8
19/03:00am 15.0 11.2 14.7 98 0.2 WNW 28 39 15 21 - - 2.8
19/02:30am 15.6 11.6 14.1 91 0.8 WNW 28 44 15 24 - - 2.6
19/02:00am 16.4 13.2 13.1 81 1.8 W 22 33 12 18 - - 2.4
19/01:30am 16.8 13.4 12.5 76 2.4 WNW 22 30 12 16 - - 2.4
19/01:00am 16.1 13.8 13.0 82 1.7 WNW 17 28 9 15 - - 2.4
19/12:30am 15.6 13.1 14.0 90 0.9 WNW 20 33 11 18 - - 2.4
19/12:00am 14.9 13.0 14.1 95 0.5 W 17 24 9 13 - - 2.4
 
Date/Time
WST
Temp
°C
App
Temp
°C
Dew
Point
°C
Rel
Hum
%
Delta-T
°C
Wind Press
QNH
hPa
Press
MSL
hPa
Rain since
9am
mm
Dir  Spd
km/h
Gust
km/h
Spd
kts
Gust
kts
18/11:30pm 15.1 12.5 14.8 98 0.2 W 22 32 12 17 - - 2.2
18/11:00pm 14.7 11.6 14.4 98 0.2 W 24 35 13 19 - - 2.2
18/10:30pm 15.1 11.7 14.8 98 0.2 WSW 26 35 14 19 - - 2.0
18/10:00pm 15.9 12.4 15.6 98 0.2 W 28 39 15 21 - - 1.8
18/09:30pm 16.0 12.9 15.7 98 0.2 W 26 35 14 19 - - 1.8
18/09:00pm 17.5 14.7 17.2 98 0.2 NW 28 41 15 22 - - 0.6
18/08:30pm 17.8 16.0 17.0 95 0.5 WNW 22 32 12 17 - - 0.0
18/08:00pm 19.0 16.2 17.3 90 1.0 NW 28 39 15 21 - - 0.0
18/07:30pm 19.3 15.2 16.5 84 1.7 NW 33 48 18 26 - - 0.0
18/07:20pm 19.3 16.3 16.9 86 1.5 NW 28 48 15 26 - - 0.0
18/07:00pm 19.2 15.6 16.2 83 1.8 NW 30 43 16 23 - - 0.0
18/06:30pm 20.1 15.7 14.0 68 3.5 NNW 30 46 16 25 - - 0.0
18/06:00pm 20.4 15.2 12.9 62 4.3 NNW 32 50 17 27 - - 0.0
18/05:30pm 20.4 15.1 12.6 61 4.4 NNW 32 52 17 28 - - 0.0
18/05:20pm 20.8 15.2 12.0 57 4.9 NNW 33 54 18 29 - - 0.0
18/05:00pm 21.0 14.6 11.9 56 5.1 NNW 37 52 20 28 - - 0.0
18/04:34pm 21.1 15.6 11.7 55 5.2 NNW 32 50 17 27 - - 0.0
18/04:30pm 21.1 16.0 12.0 56 5.1 NNW 30 46 16 25 - - 0.0
18/04:00pm 21.6 17.0 12.2 55 5.3 NNW 28 41 15 22 - - 0.0
18/03:44pm 22.1 17.4 12.1 53 5.6 NNW 28 50 15 27 - - 0.0
18/03:30pm 22.6 18.1 11.4 49 6.3 NNW 26 39 14 21 - - 0.0
18/03:00pm 23.3 19.2 10.0 43 7.3 NNW 22 32 12 17 - - 0.0
18/02:30pm 24.5 19.8 7.6 34 8.9 NNW 22 39 12 21 - - 0.0
18/02:00pm 24.0 19.6 7.6 35 8.6 N 20 39 11 21 - - 0.0
18/01:30pm 23.3 19.0 7.8 37 8.2 NNE 20 33 11 18 - - 0.0
18/01:00pm 22.9 18.1 7.4 37 8.1 N 22 37 12 20 - - 0.0
18/12:30pm 22.1 17.2 7.1 38 7.7 NNE 22 41 12 22 - - 0.0
18/12:00pm 21.8 17.4 7.6 40 7.4 NNE 20 32 11 17 - - 0.0
18/11:30am 20.8 16.2 6.7 40 7.2 NNE 20 35 11 19 - - 0.0
18/11:00am 19.4 14.5 6.8 44 6.3 NNE 22 35 12 19 - - 0.0
18/10:30am 18.8 14.2 6.6 45 6.1 NNE 20 35 11 19 - - 0.0
18/10:00am 16.9 11.9 6.4 50 5.2 NE 22 35 12 19 - - 0.0
18/09:30am 15.9 11.1 5.8 51 4.9 NE 20 35 11 19 - - 0.0
18/09:00am 14.8 9.6 5.3 53 4.5 NE 22 37 12 20 - - 0.0
18/08:30am 13.7 8.4 4.8 55 4.1 ENE 22 33 12 18 - - 0.0
18/08:00am 12.3 6.9 4.3 58 3.6 ENE 22 35 12 19 - - 0.0
18/07:30am 11.9 6.4 4.2 59 3.5 ENE 22 33 12 18 - - 0.0
18/07:00am 11.8 6.7 4.1 59 3.5 ENE 20 35 11 19 - - 0.0

Latest Capital City Observations: Canberra | Sydney | Melbourne | Brisbane | Adelaide | Perth | Hobart | Darwin

Other Formats:

Comma delimited format used in spreadsheet applications
http://www.bom.gov.au/fwo/IDW60901/IDW60901.94614.axf

JavaScript Object Notation format (JSON) in row-major order
http://www.bom.gov.au/fwo/IDW60901/IDW60901.94614.json